createdAt,value
2023-05-11T00:00:37.192Z,98360.00
2023-05-11T00:03:04.002Z,98362.00
2023-05-11T00:05:30.708Z,98358.00
2023-05-11T00:07:57.214Z,98355.00
2023-05-11T00:10:23.823Z,98350.00
2023-05-11T00:12:50.298Z,98347.00
2023-05-11T00:15:16.894Z,98355.00
2023-05-11T00:17:43.488Z,98345.00
2023-05-11T00:20:10.429Z,98348.00
2023-05-11T00:22:36.937Z,98347.00
2023-05-11T00:25:03.599Z,98344.00
2023-05-11T00:27:30.521Z,98347.00
2023-05-11T00:29:57.038Z,98342.00
2023-05-11T00:32:23.502Z,98339.00
2023-05-11T00:34:50.278Z,98335.00
2023-05-11T00:37:16.815Z,98339.00
2023-05-11T00:39:43.329Z,98343.00
2023-05-11T00:42:11.254Z,98337.00
2023-05-11T00:44:37.834Z,98344.00
2023-05-11T00:47:04.705Z,98329.00
2023-05-11T00:49:31.484Z,98338.00
2023-05-11T00:51:58.018Z,98331.00
2023-05-11T00:54:24.881Z,98334.00
2023-05-11T00:56:51.783Z,98327.00
2023-05-11T00:59:18.746Z,98334.00
2023-05-11T01:01:45.638Z,98340.00
2023-05-11T01:04:12.962Z,98340.00
2023-05-11T01:07:16.070Z,98340.00
2023-05-11T01:10:20.595Z,98342.00
2023-05-11T01:12:57.800Z,98348.00
2023-05-11T01:15:37.026Z,98346.00
2023-05-11T01:18:30.121Z,98343.00
2023-05-11T01:21:02.337Z,98340.00
2023-05-11T01:23:43.138Z,98335.00
2023-05-11T01:26:28.630Z,98350.00
2023-05-11T01:29:07.490Z,98351.00
2023-05-11T01:31:35.150Z,98349.00
2023-05-11T01:34:05.802Z,98347.00
2023-05-11T01:36:39.167Z,98356.00
2023-05-11T01:39:10.000Z,98349.00
2023-05-11T01:41:39.409Z,98349.00
2023-05-11T01:44:09.679Z,98347.00
2023-05-11T01:46:36.792Z,98351.00
2023-05-11T01:49:09.794Z,98352.00
2023-05-11T01:51:38.333Z,98347.00
2023-05-11T01:54:09.404Z,98349.00
2023-05-11T01:56:37.213Z,98347.00
2023-05-11T01:59:05.017Z,98342.00
2023-05-11T02:01:35.686Z,98338.00
2023-05-11T02:04:04.848Z,98347.00
2023-05-11T02:06:34.304Z,98347.00
2023-05-11T02:09:03.158Z,98347.00
2023-05-11T02:11:32.160Z,98340.00
2023-05-11T02:14:00.244Z,98345.00
2023-05-11T02:16:29.428Z,98342.00
2023-05-11T02:18:57.796Z,98343.00
2023-05-11T02:21:26.461Z,98339.00
2023-05-11T02:23:54.101Z,98345.00
2023-05-11T02:26:20.791Z,98344.00
2023-05-11T02:28:47.338Z,98344.00
2023-05-11T02:31:20.970Z,98350.00
2023-05-11T02:33:52.442Z,98349.00
2023-05-11T02:36:22.343Z,98351.00
2023-05-11T02:38:54.871Z,98349.00
2023-05-11T02:41:29.451Z,98339.00
2023-05-11T02:43:58.626Z,98341.00
2023-05-11T02:46:29.515Z,98343.00
2023-05-11T02:49:01.249Z,98345.00
2023-05-11T02:51:34.560Z,98351.00
2023-05-11T02:54:01.678Z,98345.00
2023-05-11T02:56:31.910Z,98352.00
2023-05-11T02:58:58.725Z,98347.00
2023-05-11T03:01:29.636Z,98343.00
2023-05-11T03:03:57.350Z,98345.00
2023-05-11T03:06:26.216Z,98345.00
2023-05-11T03:08:52.988Z,98350.00
2023-05-11T03:11:21.181Z,98345.00
2023-05-11T03:13:50.031Z,98345.00
2023-05-11T03:16:21.056Z,98346.00
2023-05-11T03:18:49.733Z,98347.00
2023-05-11T03:21:21.322Z,98351.00
2023-05-11T03:23:49.346Z,98353.00
2023-05-11T03:26:18.616Z,98352.00
2023-05-11T03:28:46.856Z,98353.00
2023-05-11T03:31:13.470Z,98350.00
2023-05-11T03:33:40.653Z,98346.00
2023-05-11T03:36:10.517Z,98339.00
2023-05-11T03:38:37.964Z,98343.00
2023-05-11T03:41:06.515Z,98341.00
2023-05-11T03:43:37.614Z,98342.00
2023-05-11T03:46:04.989Z,98343.00
2023-05-11T03:48:32.301Z,98335.00
2023-05-11T03:50:59.956Z,98332.00
2023-05-11T03:53:26.737Z,98326.00
2023-05-11T03:55:53.215Z,98335.00
2023-05-11T03:58:20.298Z,98331.00
2023-05-11T04:00:46.935Z,98336.00
2023-05-11T04:03:13.912Z,98336.00
2023-05-11T04:05:41.286Z,98346.00
2023-05-11T04:08:11.094Z,98331.00
2023-05-11T04:10:38.321Z,98341.00
2023-05-11T04:13:05.010Z,98339.00
2023-05-11T04:15:31.589Z,98336.00
2023-05-11T04:17:58.162Z,98336.00
2023-05-11T04:20:24.802Z,98335.00
2023-05-11T04:22:51.268Z,98329.00
2023-05-11T04:25:17.962Z,98336.00
2023-05-11T04:27:45.049Z,98336.00
2023-05-11T04:30:11.954Z,98333.00
2023-05-11T04:32:38.972Z,98338.00
2023-05-11T04:35:05.649Z,98335.00
2023-05-11T04:37:35.463Z,98336.00
2023-05-11T04:40:04.529Z,98347.00
2023-05-11T04:42:36.817Z,98347.00
2023-05-11T04:45:05.955Z,98354.00
2023-05-11T04:47:32.519Z,98357.00
2023-05-11T04:49:59.480Z,98350.00
2023-05-11T04:52:26.050Z,98350.00
2023-05-11T04:54:53.053Z,98348.00
2023-05-11T04:57:19.844Z,98353.00
2023-05-11T04:59:47.500Z,98353.00
2023-05-11T05:02:14.068Z,98355.00
2023-05-11T05:04:40.578Z,98359.00
2023-05-11T05:07:07.458Z,98358.00
2023-05-11T05:09:33.962Z,98369.00
2023-05-11T05:12:01.586Z,98364.00
2023-05-11T05:14:28.086Z,98368.00
2023-05-11T05:16:54.739Z,98364.00
2023-05-11T05:19:21.845Z,98362.00
2023-05-11T05:21:49.964Z,98369.00
2023-05-11T05:24:16.512Z,98371.00
2023-05-11T05:26:43.486Z,98369.00
2023-05-11T05:29:11.909Z,98372.00
2023-05-11T05:31:38.522Z,98379.00
2023-05-11T05:34:05.095Z,98365.00
2023-05-11T05:36:32.405Z,98369.00
2023-05-11T05:38:58.972Z,98364.00
2023-05-11T05:41:25.719Z,98366.00
2023-05-11T05:43:52.336Z,98367.00
2023-05-11T05:46:18.920Z,98364.00
2023-05-11T05:48:46.339Z,98368.00
2023-05-11T05:51:13.378Z,98366.00
2023-05-11T05:53:39.920Z,98374.00
2023-05-11T05:56:06.858Z,98367.00
2023-05-11T05:58:33.468Z,98372.00
2023-05-11T06:01:00.882Z,98380.00
2023-05-11T06:03:29.457Z,98378.00
2023-05-11T06:05:56.907Z,98381.00
2023-05-11T06:08:24.262Z,98383.00
2023-05-11T06:10:51.028Z,98376.00
2023-05-11T06:13:17.693Z,98377.00
2023-05-11T06:15:44.574Z,98388.00
2023-05-11T06:18:22.659Z,98393.00
2023-05-11T06:20:49.304Z,98390.00
2023-05-11T06:23:17.593Z,98388.00
2023-05-11T06:25:44.473Z,98390.00
2023-05-11T06:28:11.906Z,98383.00
2023-05-11T06:30:39.010Z,98394.00
2023-05-11T06:33:07.846Z,98387.00
2023-05-11T06:35:37.489Z,98392.00
2023-05-11T06:38:06.785Z,98386.00
2023-05-11T06:40:35.415Z,98391.00
2023-05-11T06:43:02.054Z,98385.00
2023-05-11T06:45:45.207Z,98392.00
2023-05-11T06:48:12.305Z,98390.00
2023-05-11T06:50:38.833Z,98389.00
2023-05-11T06:53:05.504Z,98385.00
2023-05-11T06:55:32.268Z,98386.00
2023-05-11T06:57:59.661Z,98384.00
2023-05-11T07:00:26.256Z,98371.00
2023-05-11T07:02:53.097Z,98390.00
2023-05-11T07:05:19.715Z,98384.00
2023-05-11T07:07:47.064Z,98383.00
2023-05-11T07:10:13.551Z,98385.00
2023-05-11T07:12:40.108Z,98388.00
2023-05-11T07:15:07.151Z,98389.00
2023-05-11T07:17:33.751Z,98388.00
2023-05-11T07:20:00.276Z,98387.00
2023-05-11T07:22:26.780Z,98378.00
2023-05-11T07:24:53.313Z,98373.00
2023-05-11T07:27:19.898Z,98379.00
2023-05-11T07:29:46.366Z,98391.00
2023-05-11T07:32:13.179Z,98390.00
2023-05-11T07:34:41.114Z,98383.00
2023-05-11T07:37:08.368Z,98382.00
2023-05-11T07:39:35.133Z,98376.00
2023-05-11T07:42:01.723Z,98378.00
2023-05-11T07:44:28.241Z,98385.00
2023-05-11T07:46:55.078Z,98381.00
2023-05-11T07:49:28.164Z,98378.00
2023-05-11T07:52:01.948Z,98376.00
2023-05-11T07:54:28.471Z,98377.00
2023-05-11T07:56:55.007Z,98380.00
2023-05-11T07:59:21.481Z,98375.00
2023-05-11T08:01:48.037Z,98378.00
2023-05-11T08:04:14.612Z,98373.00
2023-05-11T08:06:41.155Z,98376.00
2023-05-11T08:09:07.717Z,98377.00
2023-05-11T08:11:34.290Z,98369.00
2023-05-11T08:14:00.789Z,98369.00
2023-05-11T08:16:27.390Z,98370.00
2023-05-11T08:18:53.953Z,98376.00
2023-05-11T08:21:20.629Z,98381.00
2023-05-11T08:23:47.125Z,98376.00
2023-05-11T08:26:13.568Z,98377.00
2023-05-11T08:28:40.033Z,98383.00
2023-05-11T08:31:06.668Z,98378.00
2023-05-11T08:33:38.032Z,98379.00
2023-05-11T08:36:06.178Z,98380.00
2023-05-11T08:38:33.332Z,98381.00
2023-05-11T08:41:01.673Z,98385.00
2023-05-11T08:43:30.052Z,98379.00
2023-05-11T08:46:00.769Z,98385.00
2023-05-11T08:48:27.811Z,98385.00
2023-05-11T08:50:54.320Z,98382.00
2023-05-11T08:53:20.929Z,98381.00
2023-05-11T08:55:48.153Z,98382.00
2023-05-11T08:58:19.382Z,98381.00
2023-05-11T09:00:47.150Z,98381.00
2023-05-11T09:03:14.668Z,98378.00
2023-05-11T09:05:43.015Z,98379.00
2023-05-11T09:08:12.339Z,98392.00
2023-05-11T09:10:39.044Z,98395.00
2023-05-11T09:13:06.047Z,98385.00
2023-05-11T09:15:37.021Z,98394.00
2023-05-11T09:18:04.818Z,98390.00
2023-05-11T09:20:33.055Z,98398.00
2023-05-11T09:23:00.664Z,98385.00
2023-05-11T09:25:30.644Z,98391.00
2023-05-11T09:27:59.173Z,98391.00
2023-05-11T09:30:25.947Z,98389.00
2023-05-11T09:32:57.691Z,98387.00
2023-05-11T09:35:32.198Z,98399.00
2023-05-11T09:38:02.906Z,98398.00
2023-05-11T09:40:34.269Z,98396.00
2023-05-11T09:43:02.421Z,98389.00
2023-05-11T09:45:40.311Z,98394.00
2023-05-11T09:48:08.466Z,98388.00
2023-05-11T09:50:35.912Z,98388.00
2023-05-11T09:53:02.583Z,98387.00
2023-05-11T09:55:30.387Z,98378.00
2023-05-11T09:57:58.829Z,98381.00
2023-05-11T10:00:26.026Z,98377.00
2023-05-11T10:03:06.592Z,98383.00
2023-05-11T10:05:35.432Z,98382.00
2023-05-11T10:08:03.903Z,98387.00
2023-05-11T10:10:32.664Z,98382.00
2023-05-11T10:13:01.233Z,98386.00
2023-05-11T10:15:29.043Z,98383.00
2023-05-11T10:17:57.105Z,98384.00
2023-05-11T10:20:25.106Z,98380.00
2023-05-11T10:22:56.008Z,98382.00
2023-05-11T10:25:23.845Z,98380.00
2023-05-11T10:27:51.347Z,98381.00
2023-05-11T10:30:18.930Z,98379.00
2023-05-11T10:32:47.181Z,98381.00
2023-05-11T10:35:14.030Z,98374.00
2023-05-11T10:37:42.816Z,98374.00
2023-05-11T10:40:10.786Z,98371.00
2023-05-11T10:43:05.526Z,98363.00
2023-05-11T10:45:36.588Z,98360.00
2023-05-11T10:48:44.520Z,98370.00
2023-05-11T10:51:39.611Z,98365.00
2023-05-11T10:54:33.401Z,98371.00
2023-05-11T10:57:24.651Z,98363.00
2023-05-11T11:00:35.830Z,98371.00
2023-05-11T11:03:13.109Z,98360.00
2023-05-11T11:05:40.369Z,98362.00
2023-05-11T11:08:09.121Z,98358.00
2023-05-11T11:10:38.330Z,98356.00
2023-05-11T11:13:07.338Z,98356.00
2023-05-11T11:15:55.646Z,98366.00
2023-05-11T11:18:30.217Z,98359.00
2023-05-11T11:20:58.488Z,98368.00
2023-05-11T11:23:41.258Z,98348.00
2023-05-11T11:26:09.901Z,98350.00
2023-05-11T11:28:54.807Z,98348.00
2023-05-11T11:31:27.939Z,98353.00
2023-05-11T11:33:58.695Z,98348.00
2023-05-11T11:36:56.271Z,98344.00
2023-05-11T11:39:25.400Z,98342.00
2023-05-11T11:42:01.718Z,98346.00
2023-05-11T11:44:28.428Z,98342.00
2023-05-11T11:47:15.444Z,98344.00
2023-05-11T11:49:44.783Z,98344.00
2023-05-11T11:52:35.083Z,98340.00
2023-05-11T11:55:04.023Z,98333.00
2023-05-11T11:57:33.665Z,98335.00
2023-05-11T12:00:10.767Z,98332.00
2023-05-11T12:02:45.825Z,98334.00
2023-05-11T12:05:22.365Z,98330.00
2023-05-11T12:07:51.450Z,98334.00
2023-05-11T12:10:20.062Z,98332.00
2023-05-11T12:12:48.211Z,98326.00
2023-05-11T12:15:28.783Z,98322.00
2023-05-11T12:17:56.480Z,98321.00
2023-05-11T12:20:23.709Z,98317.00
2023-05-11T12:22:50.733Z,98316.00
2023-05-11T12:25:19.093Z,98319.00
2023-05-11T12:27:48.357Z,98321.00
2023-05-11T12:30:22.020Z,98309.00
2023-05-11T12:32:48.886Z,98308.00
2023-05-11T12:35:22.829Z,98318.00
2023-05-11T12:37:49.478Z,98321.00
2023-05-11T12:40:16.009Z,98313.00
2023-05-11T12:42:56.694Z,98319.00
2023-05-11T12:45:24.783Z,98314.00
2023-05-11T12:47:54.026Z,98307.00
2023-05-11T12:50:21.505Z,98308.00
2023-05-11T12:52:49.112Z,98300.00
2023-05-11T12:55:27.656Z,98295.00
2023-05-11T12:58:07.397Z,98297.00
2023-05-11T13:00:33.984Z,98293.00
2023-05-11T13:03:00.606Z,98288.00
2023-05-11T13:05:27.961Z,98296.00
2023-05-11T13:08:05.005Z,98298.00
2023-05-11T13:10:32.191Z,98291.00
2023-05-11T13:12:59.196Z,98283.00
2023-05-11T13:15:25.923Z,98287.00
2023-05-11T13:18:03.231Z,98286.00
2023-05-11T13:20:32.367Z,98282.00
2023-05-11T13:23:04.842Z,98288.00
2023-05-11T13:25:32.035Z,98282.00
2023-05-11T13:27:58.843Z,98286.00
2023-05-11T13:30:25.488Z,98280.00
2023-05-11T13:32:52.048Z,98290.00
2023-05-11T13:35:19.198Z,98280.00
2023-05-11T13:37:46.947Z,98284.00
2023-05-11T13:40:13.893Z,98288.00
2023-05-11T13:42:41.589Z,98283.00
2023-05-11T13:45:08.583Z,98281.00
2023-05-11T13:47:35.928Z,98285.00
2023-05-11T13:50:02.717Z,98290.00
2023-05-11T13:52:29.297Z,98285.00
2023-05-11T13:54:56.808Z,98291.00
2023-05-11T13:57:23.530Z,98302.00
2023-05-11T13:59:50.923Z,98303.00
2023-05-11T14:02:17.494Z,98299.00
2023-05-11T14:04:44.151Z,98306.00
2023-05-11T14:07:10.728Z,98307.00
2023-05-11T14:09:37.291Z,98309.00
2023-05-11T14:12:04.238Z,98306.00
2023-05-11T14:14:30.858Z,98298.00
2023-05-11T14:16:57.483Z,98306.00
2023-05-11T14:19:24.069Z,98308.00
2023-05-11T14:21:50.766Z,98308.00
2023-05-11T14:24:17.337Z,98314.00
2023-05-11T14:26:43.937Z,98309.00
2023-05-11T14:29:10.609Z,98306.00
2023-05-11T14:31:37.822Z,98307.00
2023-05-11T14:34:04.686Z,98311.00
2023-05-11T14:36:32.026Z,98304.00
2023-05-11T14:38:58.610Z,98310.00
2023-05-11T14:41:25.586Z,98303.00
2023-05-11T14:43:52.311Z,98306.00
2023-05-11T14:46:19.533Z,98302.00
2023-05-11T14:48:46.349Z,98302.00
2023-05-11T14:51:12.892Z,98296.00
2023-05-11T14:53:39.473Z,98295.00
2023-05-11T14:56:06.668Z,98296.00
2023-05-11T14:58:33.172Z,98295.00
2023-05-11T15:00:59.721Z,98289.00
2023-05-11T15:03:26.366Z,98287.00
2023-05-11T15:05:52.931Z,98287.00
2023-05-11T15:08:29.555Z,98290.00
2023-05-11T15:10:57.295Z,98286.00
2023-05-11T15:13:24.251Z,98284.00
2023-05-11T15:15:51.423Z,98285.00
2023-05-11T15:18:18.027Z,98293.00
2023-05-11T15:20:44.722Z,98288.00
2023-05-11T15:23:11.798Z,98288.00
2023-05-11T15:25:38.476Z,98293.00
2023-05-11T15:28:06.176Z,98287.00
2023-05-11T15:30:32.944Z,98293.00
2023-05-11T15:32:59.705Z,98292.00
2023-05-11T15:35:26.358Z,98291.00
2023-05-11T15:37:52.864Z,98286.00
2023-05-11T15:40:19.378Z,98282.00
2023-05-11T15:42:46.000Z,98292.00
2023-05-11T15:45:12.504Z,98297.00
2023-05-11T15:47:39.024Z,98295.00
2023-05-11T15:50:06.460Z,98288.00
2023-05-11T15:52:32.980Z,98286.00
2023-05-11T15:54:59.469Z,98282.00
2023-05-11T15:57:26.035Z,98285.00
2023-05-11T15:59:52.572Z,98279.00
2023-05-11T16:02:19.097Z,98295.00
2023-05-11T16:04:45.973Z,98283.00
2023-05-11T16:07:12.513Z,98285.00
2023-05-11T16:09:39.069Z,98289.00
2023-05-11T16:12:06.042Z,98291.00
2023-05-11T16:14:32.773Z,98280.00
2023-05-11T16:17:01.397Z,98279.00
2023-05-11T16:19:28.144Z,98272.00
2023-05-11T16:21:54.644Z,98283.00
2023-05-11T16:24:21.108Z,98271.00
2023-05-11T16:26:47.623Z,98268.00
2023-05-11T16:29:14.116Z,98270.00
2023-05-11T16:31:40.814Z,98273.00
2023-05-11T16:34:07.546Z,98274.00
2023-05-11T16:36:34.154Z,98272.00
2023-05-11T16:39:00.830Z,98271.00
2023-05-11T16:41:28.700Z,98278.00
2023-05-11T16:43:55.954Z,98280.00
2023-05-11T16:46:22.599Z,98274.00
2023-05-11T16:48:49.238Z,98266.00
2023-05-11T16:51:15.796Z,98267.00
2023-05-11T16:53:43.077Z,98275.00
2023-05-11T16:56:09.560Z,98270.00
2023-05-11T16:58:36.139Z,98267.00
2023-05-11T17:01:02.839Z,98268.00
2023-05-11T17:03:29.443Z,98269.00
2023-05-11T17:05:56.142Z,98268.00
2023-05-11T17:08:22.610Z,98267.00
2023-05-11T17:10:49.120Z,98274.00
2023-05-11T17:13:15.651Z,98272.00
2023-05-11T17:15:42.204Z,98272.00
2023-05-11T17:18:08.782Z,98270.00
2023-05-11T17:20:35.675Z,98279.00
2023-05-11T17:23:02.148Z,98271.00
2023-05-11T17:25:29.940Z,98259.00
2023-05-11T17:27:56.477Z,98269.00
2023-05-11T17:30:27.639Z,98272.00
2023-05-11T17:33:02.866Z,98275.00
2023-05-11T17:35:29.561Z,98274.00
2023-05-11T17:37:56.022Z,98279.00
2023-05-11T17:40:22.510Z,98282.00
2023-05-11T17:42:49.544Z,98280.00
2023-05-11T17:45:16.137Z,98289.00
2023-05-11T17:47:43.559Z,98284.00
2023-05-11T17:50:10.601Z,98282.00
2023-05-11T17:52:37.122Z,98286.00
2023-05-11T17:55:04.660Z,98287.00
2023-05-11T17:57:31.278Z,98288.00
2023-05-11T17:59:57.831Z,98291.00
2023-05-11T18:02:24.826Z,98288.00
2023-05-11T18:04:51.464Z,98293.00
2023-05-11T18:07:17.999Z,98289.00
2023-05-11T18:09:44.535Z,98296.00
2023-05-11T18:12:11.682Z,98302.00
2023-05-11T18:14:38.164Z,98298.00
2023-05-11T18:17:05.244Z,98302.00
2023-05-11T18:19:31.778Z,98309.00
2023-05-11T18:21:58.835Z,98304.00
2023-05-11T18:24:25.352Z,98308.00
2023-05-11T18:26:52.036Z,98308.00
2023-05-11T18:29:20.158Z,98313.00
2023-05-11T18:31:46.806Z,98308.00
2023-05-11T18:34:13.374Z,98307.00
2023-05-11T18:36:39.924Z,98309.00
2023-05-11T18:39:06.436Z,98305.00
2023-05-11T18:41:34.593Z,98307.00
2023-05-11T18:44:01.149Z,98304.00
2023-05-11T18:46:27.705Z,98324.00
2023-05-11T18:48:54.377Z,98311.00
2023-05-11T18:51:22.638Z,98312.00
2023-05-11T18:53:49.889Z,98313.00
2023-05-11T18:56:17.305Z,98321.00
2023-05-11T18:58:47.919Z,98314.00
2023-05-11T19:01:15.252Z,98317.00
2023-05-11T19:03:42.523Z,98324.00
2023-05-11T19:06:09.182Z,98327.00
2023-05-11T19:08:35.833Z,98331.00
2023-05-11T19:11:07.445Z,98324.00
2023-05-11T19:13:34.778Z,98326.00
2023-05-11T19:16:03.970Z,98331.00
2023-05-11T19:18:32.221Z,98327.00
2023-05-11T19:20:58.880Z,98337.00
2023-05-11T19:23:25.390Z,98341.00
2023-05-11T19:25:51.931Z,98343.00
2023-05-11T19:28:18.576Z,98348.00
2023-05-11T19:30:45.218Z,98346.00
2023-05-11T19:33:11.896Z,98337.00
2023-05-11T19:35:38.462Z,98347.00
2023-05-11T19:38:06.272Z,98341.00
2023-05-11T19:43:05.425Z,98350.00
2023-05-11T19:45:33.117Z,98353.00
2023-05-11T19:47:59.956Z,98350.00
2023-05-11T19:50:26.745Z,98348.00
2023-05-11T19:52:53.539Z,98350.00
2023-05-11T19:55:21.301Z,98356.00
2023-05-11T19:57:47.838Z,98355.00
2023-05-11T20:00:14.499Z,98361.00
2023-05-11T20:02:41.129Z,98361.00
2023-05-11T20:05:08.017Z,98363.00
2023-05-11T20:07:34.677Z,98362.00
2023-05-11T20:10:01.280Z,98366.00
2023-05-11T20:12:27.826Z,98359.00
2023-05-11T20:14:54.451Z,98362.00
2023-05-11T20:17:21.639Z,98368.00
2023-05-11T20:19:48.247Z,98370.00
2023-05-11T20:22:14.732Z,98373.00
2023-05-11T20:24:41.258Z,98363.00
2023-05-11T20:27:09.595Z,98367.00
2023-05-11T20:29:36.505Z,98360.00
2023-05-11T20:32:03.506Z,98366.00
2023-05-11T20:34:30.302Z,98367.00
2023-05-11T20:36:57.015Z,98358.00
2023-05-11T20:39:23.570Z,98358.00
2023-05-11T20:41:50.249Z,98355.00
2023-05-11T20:44:17.613Z,98355.00
2023-05-11T20:46:44.245Z,98352.00
2023-05-11T20:49:16.758Z,98358.00
2023-05-11T20:51:51.181Z,98357.00
2023-05-11T20:54:18.008Z,98356.00
2023-05-11T20:56:44.609Z,98352.00
2023-05-11T21:00:03.554Z,98361.00
2023-05-11T21:01:59.028Z,98357.00
2023-05-11T21:04:25.791Z,98359.00
2023-05-11T21:06:55.513Z,98353.00
2023-05-11T21:09:22.031Z,98356.00
2023-05-11T21:11:48.953Z,98350.00
2023-05-11T21:14:15.590Z,98353.00
2023-05-11T21:16:42.278Z,98351.00
2023-05-11T21:19:09.072Z,98345.00
2023-05-11T21:21:35.815Z,98344.00
2023-05-11T21:24:02.416Z,98342.00
2023-05-11T21:26:28.970Z,98343.00
2023-05-11T21:28:57.378Z,98344.00
2023-05-11T21:31:23.874Z,98348.00
2023-05-11T21:33:50.705Z,98346.00
2023-05-11T21:36:17.229Z,98346.00
2023-05-11T21:38:43.879Z,98345.00
2023-05-11T21:41:11.097Z,98347.00
2023-05-11T21:43:37.618Z,98345.00
2023-05-11T21:46:04.206Z,98346.00
2023-05-11T21:48:30.728Z,98347.00
2023-05-11T21:50:57.300Z,98349.00
2023-05-11T21:53:23.892Z,98341.00
2023-05-11T21:55:50.622Z,98342.00
2023-05-11T21:58:17.451Z,98342.00
2023-05-11T22:00:44.250Z,98347.00
2023-05-11T22:03:10.858Z,98343.00
2023-05-11T22:05:37.393Z,98339.00
2023-05-11T22:08:13.971Z,98337.00
2023-05-11T22:10:41.737Z,98344.00
2023-05-11T22:13:08.258Z,98335.00
2023-05-11T22:15:34.795Z,98346.00
2023-05-11T22:18:01.361Z,98340.00
2023-05-11T22:20:27.908Z,98341.00
2023-05-11T22:22:54.408Z,98338.00
2023-05-11T22:25:20.882Z,98338.00
2023-05-11T22:27:47.832Z,98331.00
2023-05-11T22:30:14.464Z,98332.00
2023-05-11T22:32:41.301Z,98337.00
2023-05-11T22:35:08.311Z,98337.00
2023-05-11T22:37:34.739Z,98342.00
2023-05-11T22:40:01.291Z,98333.00
2023-05-11T22:42:30.631Z,98339.00
2023-05-11T22:44:57.152Z,98333.00
2023-05-11T22:47:24.128Z,98342.00
2023-05-11T22:49:50.650Z,98335.00
2023-05-11T22:52:17.489Z,98329.00
2023-05-11T22:54:43.980Z,98336.00
2023-05-11T22:57:13.396Z,98328.00
2023-05-11T22:59:39.963Z,98329.00
2023-05-11T23:02:06.476Z,98330.00
2023-05-11T23:04:33.045Z,98322.00
2023-05-11T23:06:59.846Z,98330.00
2023-05-11T23:09:26.606Z,98326.00
2023-05-11T23:11:53.490Z,98325.00
2023-05-11T23:14:20.036Z,98328.00
2023-05-11T23:16:46.490Z,98315.00
2023-05-11T23:19:13.079Z,98320.00
2023-05-11T23:21:39.550Z,98316.00
2023-05-11T23:24:06.930Z,98329.00
2023-05-11T23:26:33.990Z,98330.00
2023-05-11T23:29:00.505Z,98326.00
2023-05-11T23:31:28.372Z,98328.00
2023-05-11T23:33:55.201Z,98311.00
2023-05-11T23:36:21.677Z,98320.00
2023-05-11T23:38:48.260Z,98317.00
2023-05-11T23:41:14.780Z,98315.00
2023-05-11T23:43:41.554Z,98318.00
2023-05-11T23:46:08.141Z,98309.00
2023-05-11T23:48:34.880Z,98310.00
2023-05-11T23:51:01.508Z,98304.00
2023-05-11T23:53:28.156Z,98302.00
2023-05-11T23:55:54.670Z,98297.00
2023-05-11T23:58:21.232Z,98305.00
